sensor_id;sensor_type;location;lat;lon;timestamp;P1;durP1;ratioP1;P2;durP2;ratioP2
5876;SDS011;2964;42.144;24.730;2023-12-29T00:01:48;51.23;;;32.57;;
5876;SDS011;2964;42.144;24.730;2023-12-29T00:04:14;52.10;;;31.90;;
5876;SDS011;2964;42.144;24.730;2023-12-29T00:06:42;63.73;;;32.83;;
5876;SDS011;2964;42.144;24.730;2023-12-29T00:09:09;55.30;;;31.67;;
5876;SDS011;2964;42.144;24.730;2023-12-29T00:11:37;49.20;;;31.00;;
5876;SDS011;2964;42.144;24.730;2023-12-29T00:14:04;47.63;;;31.40;;
5876;SDS011;2964;42.144;24.730;2023-12-29T00:16:31;47.17;;;31.13;;
5876;SDS011;2964;42.144;24.730;2023-12-29T00:18:58;53.40;;;31.47;;
5876;SDS011;2964;42.144;24.730;2023-12-29T00:21:25;47.73;;;29.80;;
5876;SDS011;2964;42.144;24.730;2023-12-29T00:23:53;50.30;;;30.60;;
5876;SDS011;2964;42.144;24.730;2023-12-29T00:26:19;56.30;;;32.07;;
5876;SDS011;2964;42.144;24.730;2023-12-29T00:28:46;40.80;;;25.93;;
5876;SDS011;2964;42.144;24.730;2023-12-29T00:31:13;39.33;;;24.67;;
5876;SDS011;2964;42.144;24.730;2023-12-29T00:33:40;35.83;;;23.23;;
5876;SDS011;2964;42.144;24.730;2023-12-29T00:36:07;40.33;;;22.90;;
5876;SDS011;2964;42.144;24.730;2023-12-29T00:38:34;34.60;;;22.80;;
5876;SDS011;2964;42.144;24.730;2023-12-29T00:41:02;39.00;;;25.27;;
5876;SDS011;2964;42.144;24.730;2023-12-29T00:43:31;44.33;;;25.27;;
5876;SDS011;2964;42.144;24.730;2023-12-29T00:45:57;37.23;;;22.20;;
5876;SDS011;2964;42.144;24.730;2023-12-29T00:48:24;34.87;;;22.63;;
5876;SDS011;2964;42.144;24.730;2023-12-29T00:50:51;32.50;;;21.57;;
5876;SDS011;2964;42.144;24.730;2023-12-29T00:53:17;40.53;;;22.80;;
5876;SDS011;2964;42.144;24.730;2023-12-29T00:55:44;28.37;;;21.13;;
5876;SDS011;2964;42.144;24.730;2023-12-29T00:58:13;38.87;;;21.23;;
5876;SDS011;2964;42.144;24.730;2023-12-29T01:00:39;31.20;;;21.80;;
5876;SDS011;2964;42.144;24.730;2023-12-29T01:03:06;35.03;;;22.23;;
5876;SDS011;2964;42.144;24.730;2023-12-29T01:05:33;31.47;;;21.23;;
5876;SDS011;2964;42.144;24.730;2023-12-29T01:08:00;37.23;;;23.03;;
5876;SDS011;2964;42.144;24.730;2023-12-29T01:10:26;31.50;;;20.80;;
5876;SDS011;2964;42.144;24.730;2023-12-29T01:12:53;29.93;;;20.13;;
5876;SDS011;2964;42.144;24.730;2023-12-29T01:15:21;30.90;;;21.53;;
5876;SDS011;2964;42.144;24.730;2023-12-29T01:17:48;34.07;;;21.60;;
5876;SDS011;2964;42.144;24.730;2023-12-29T01:20:14;27.43;;;19.87;;
5876;SDS011;2964;42.144;24.730;2023-12-29T01:22:43;33.03;;;21.20;;
5876;SDS011;2964;42.144;24.730;2023-12-29T01:25:09;28.87;;;20.07;;
5876;SDS011;2964;42.144;24.730;2023-12-29T01:27:36;34.80;;;20.33;;
5876;SDS011;2964;42.144;24.730;2023-12-29T01:30:03;30.53;;;20.67;;
5876;SDS011;2964;42.144;24.730;2023-12-29T01:32:32;32.87;;;21.23;;
5876;SDS011;2964;42.144;24.730;2023-12-29T01:34:59;28.47;;;19.73;;
5876;SDS011;2964;42.144;24.730;2023-12-29T01:37:25;31.43;;;19.50;;
5876;SDS011;2964;42.144;24.730;2023-12-29T01:39:52;30.57;;;19.83;;
5876;SDS011;2964;42.144;24.730;2023-12-29T01:42:19;33.53;;;19.73;;
5876;SDS011;2964;42.144;24.730;2023-12-29T01:44:45;27.53;;;19.07;;
5876;SDS011;2964;42.144;24.730;2023-12-29T01:47:17;29.93;;;19.30;;
5876;SDS011;2964;42.144;24.730;2023-12-29T01:49:46;32.50;;;19.80;;
5876;SDS011;2964;42.144;24.730;2023-12-29T01:52:13;32.07;;;20.07;;
5876;SDS011;2964;42.144;24.730;2023-12-29T01:54:42;26.63;;;18.40;;
5876;SDS011;2964;42.144;24.730;2023-12-29T01:57:10;29.80;;;18.13;;
5876;SDS011;2964;42.144;24.730;2023-12-29T01:59:37;33.93;;;19.37;;
5876;SDS011;2964;42.144;24.730;2023-12-29T02:02:04;29.23;;;17.97;;
5876;SDS011;2964;42.144;24.730;2023-12-29T02:04:31;32.83;;;18.67;;
5876;SDS011;2964;42.144;24.730;2023-12-29T02:06:59;30.43;;;19.50;;
5876;SDS011;2964;42.144;24.730;2023-12-29T02:09:26;32.30;;;19.57;;
5876;SDS011;2964;42.144;24.730;2023-12-29T02:11:53;33.90;;;20.93;;
5876;SDS011;2964;42.144;24.730;2023-12-29T02:14:20;30.57;;;20.93;;
5876;SDS011;2964;42.144;24.730;2023-12-29T02:16:50;28.60;;;21.10;;
5876;SDS011;2964;42.144;24.730;2023-12-29T02:19:25;30.23;;;21.13;;
5876;SDS011;2964;42.144;24.730;2023-12-29T02:22:08;34.27;;;21.10;;
5876;SDS011;2964;42.144;24.730;2023-12-29T02:24:35;30.47;;;20.53;;
5876;SDS011;2964;42.144;24.730;2023-12-29T02:27:07;34.37;;;22.17;;
5876;SDS011;2964;42.144;24.730;2023-12-29T02:29:56;32.40;;;22.00;;
5876;SDS011;2964;42.144;24.730;2023-12-29T02:32:33;34.43;;;21.87;;
5876;SDS011;2964;42.144;24.730;2023-12-29T02:35:02;33.83;;;21.53;;
5876;SDS011;2964;42.144;24.730;2023-12-29T02:37:32;33.73;;;21.93;;
5876;SDS011;2964;42.144;24.730;2023-12-29T02:40:01;32.40;;;22.67;;
5876;SDS011;2964;42.144;24.730;2023-12-29T02:42:29;37.10;;;22.60;;
5876;SDS011;2964;42.144;24.730;2023-12-29T02:44:56;36.57;;;21.83;;
5876;SDS011;2964;42.144;24.730;2023-12-29T02:47:22;34.97;;;22.93;;
5876;SDS011;2964;42.144;24.730;2023-12-29T02:49:49;32.03;;;21.57;;
5876;SDS011;2964;42.144;24.730;2023-12-29T02:52:16;31.33;;;21.53;;
5876;SDS011;2964;42.144;24.730;2023-12-29T02:54:43;33.07;;;21.17;;
5876;SDS011;2964;42.144;24.730;2023-12-29T02:57:10;38.40;;;23.17;;
5876;SDS011;2964;42.144;24.730;2023-12-29T02:59:38;33.43;;;22.43;;
5876;SDS011;2964;42.144;24.730;2023-12-29T03:02:04;33.87;;;22.37;;
5876;SDS011;2964;42.144;24.730;2023-12-29T03:04:31;35.53;;;23.30;;
5876;SDS011;2964;42.144;24.730;2023-12-29T03:06:58;32.30;;;22.63;;
5876;SDS011;2964;42.144;24.730;2023-12-29T03:09:24;37.17;;;24.33;;
5876;SDS011;2964;42.144;24.730;2023-12-29T03:11:51;35.50;;;23.60;;
5876;SDS011;2964;42.144;24.730;2023-12-29T03:14:18;42.47;;;23.77;;
5876;SDS011;2964;42.144;24.730;2023-12-29T03:16:46;39.83;;;23.73;;
5876;SDS011;2964;42.144;24.730;2023-12-29T03:19:13;33.40;;;23.20;;
5876;SDS011;2964;42.144;24.730;2023-12-29T03:21:39;36.97;;;24.10;;
5876;SDS011;2964;42.144;24.730;2023-12-29T03:24:06;40.63;;;24.70;;
5876;SDS011;2964;42.144;24.730;2023-12-29T03:26:33;33.97;;;23.67;;
5876;SDS011;2964;42.144;24.730;2023-12-29T03:29:00;38.20;;;23.67;;
5876;SDS011;2964;42.144;24.730;2023-12-29T03:31:26;35.60;;;23.63;;
5876;SDS011;2964;42.144;24.730;2023-12-29T03:33:54;38.30;;;23.13;;
5876;SDS011;2964;42.144;24.730;2023-12-29T03:36:21;39.50;;;25.03;;
5876;SDS011;2964;42.144;24.730;2023-12-29T03:38:48;37.90;;;24.53;;
5876;SDS011;2964;42.144;24.730;2023-12-29T03:41:14;40.47;;;25.73;;
5876;SDS011;2964;42.144;24.730;2023-12-29T03:43:41;40.67;;;25.37;;
5876;SDS011;2964;42.144;24.730;2023-12-29T03:46:14;40.73;;;26.80;;
5876;SDS011;2964;42.144;24.730;2023-12-29T03:48:43;40.37;;;26.33;;
5876;SDS011;2964;42.144;24.730;2023-12-29T03:51:12;43.17;;;27.10;;
5876;SDS011;2964;42.144;24.730;2023-12-29T03:53:39;42.13;;;25.87;;
5876;SDS011;2964;42.144;24.730;2023-12-29T03:56:06;42.73;;;25.33;;
5876;SDS011;2964;42.144;24.730;2023-12-29T03:58:33;41.23;;;26.60;;
5876;SDS011;2964;42.144;24.730;2023-12-29T04:01:00;39.70;;;26.37;;
5876;SDS011;2964;42.144;24.730;2023-12-29T04:03:26;44.27;;;26.10;;
5876;SDS011;2964;42.144;24.730;2023-12-29T04:05:53;39.73;;;25.77;;
5876;SDS011;2964;42.144;24.730;2023-12-29T04:08:21;40.53;;;26.10;;
5876;SDS011;2964;42.144;24.730;2023-12-29T04:10:48;46.73;;;28.90;;
5876;SDS011;2964;42.144;24.730;2023-12-29T04:13:14;37.87;;;26.80;;
5876;SDS011;2964;42.144;24.730;2023-12-29T04:15:41;43.23;;;27.00;;
5876;SDS011;2964;42.144;24.730;2023-12-29T04:18:08;42.20;;;26.67;;
5876;SDS011;2964;42.144;24.730;2023-12-29T04:20:35;39.43;;;28.43;;
5876;SDS011;2964;42.144;24.730;2023-12-29T04:23:02;41.17;;;28.23;;
5876;SDS011;2964;42.144;24.730;2023-12-29T04:25:31;41.67;;;27.47;;
5876;SDS011;2964;42.144;24.730;2023-12-29T04:27:58;44.90;;;28.67;;
5876;SDS011;2964;42.144;24.730;2023-12-29T04:30:25;39.60;;;26.37;;
5876;SDS011;2964;42.144;24.730;2023-12-29T04:32:52;37.63;;;26.07;;
5876;SDS011;2964;42.144;24.730;2023-12-29T04:35:19;42.13;;;27.23;;
5876;SDS011;2964;42.144;24.730;2023-12-29T04:37:45;43.87;;;27.17;;
5876;SDS011;2964;42.144;24.730;2023-12-29T04:40:12;45.20;;;26.77;;
5876;SDS011;2964;42.144;24.730;2023-12-29T04:42:40;43.07;;;27.43;;
5876;SDS011;2964;42.144;24.730;2023-12-29T04:45:07;48.03;;;28.33;;
5876;SDS011;2964;42.144;24.730;2023-12-29T04:47:35;39.63;;;27.50;;
5876;SDS011;2964;42.144;24.730;2023-12-29T04:50:02;43.53;;;28.07;;
5876;SDS011;2964;42.144;24.730;2023-12-29T04:52:29;49.97;;;30.37;;
5876;SDS011;2964;42.144;24.730;2023-12-29T04:54:55;42.87;;;27.83;;
5876;SDS011;2964;42.144;24.730;2023-12-29T04:57:22;45.23;;;28.00;;
5876;SDS011;2964;42.144;24.730;2023-12-29T04:59:50;41.27;;;27.10;;
5876;SDS011;2964;42.144;24.730;2023-12-29T05:02:17;49.97;;;29.90;;
5876;SDS011;2964;42.144;24.730;2023-12-29T05:04:44;46.77;;;29.33;;
5876;SDS011;2964;42.144;24.730;2023-12-29T05:07:11;52.43;;;29.07;;
5876;SDS011;2964;42.144;24.730;2023-12-29T05:09:38;42.40;;;28.00;;
5876;SDS011;2964;42.144;24.730;2023-12-29T05:12:05;47.70;;;27.93;;
5876;SDS011;2964;42.144;24.730;2023-12-29T05:14:31;52.77;;;33.17;;
5876;SDS011;2964;42.144;24.730;2023-12-29T05:16:59;58.30;;;33.53;;
5876;SDS011;2964;42.144;24.730;2023-12-29T05:19:26;51.37;;;32.87;;
5876;SDS011;2964;42.144;24.730;2023-12-29T05:21:53;54.87;;;32.13;;
5876;SDS011;2964;42.144;24.730;2023-12-29T05:24:20;43.73;;;29.60;;
5876;SDS011;2964;42.144;24.730;2023-12-29T05:26:46;42.20;;;28.97;;
5876;SDS011;2964;42.144;24.730;2023-12-29T05:29:13;52.73;;;28.70;;
5876;SDS011;2964;42.144;24.730;2023-12-29T05:31:41;51.90;;;29.47;;
5876;SDS011;2964;42.144;24.730;2023-12-29T05:34:12;48.80;;;29.73;;
5876;SDS011;2964;42.144;24.730;2023-12-29T05:36:38;45.20;;;27.43;;
5876;SDS011;2964;42.144;24.730;2023-12-29T05:39:07;39.97;;;27.27;;
5876;SDS011;2964;42.144;24.730;2023-12-29T05:41:34;42.53;;;25.40;;
5876;SDS011;2964;42.144;24.730;2023-12-29T05:44:02;35.40;;;22.37;;
5876;SDS011;2964;42.144;24.730;2023-12-29T05:46:30;33.10;;;22.03;;
5876;SDS011;2964;42.144;24.730;2023-12-29T05:48:57;34.07;;;21.13;;
5876;SDS011;2964;42.144;24.730;2023-12-29T05:51:26;31.30;;;21.07;;
5876;SDS011;2964;42.144;24.730;2023-12-29T05:53:52;31.83;;;21.00;;
5876;SDS011;2964;42.144;24.730;2023-12-29T05:56:25;33.30;;;21.20;;
5876;SDS011;2964;42.144;24.730;2023-12-29T05:58:52;34.67;;;21.07;;
5876;SDS011;2964;42.144;24.730;2023-12-29T06:01:19;34.10;;;21.67;;
5876;SDS011;2964;42.144;24.730;2023-12-29T06:03:46;36.17;;;22.83;;
5876;SDS011;2964;42.144;24.730;2023-12-29T06:06:12;34.83;;;22.43;;
5876;SDS011;2964;42.144;24.730;2023-12-29T06:08:40;33.57;;;23.57;;
5876;SDS011;2964;42.144;24.730;2023-12-29T06:11:07;32.97;;;22.00;;
5876;SDS011;2964;42.144;24.730;2023-12-29T06:13:35;39.77;;;23.50;;
5876;SDS011;2964;42.144;24.730;2023-12-29T06:16:02;39.47;;;24.17;;
5876;SDS011;2964;42.144;24.730;2023-12-29T06:18:29;36.80;;;23.67;;
5876;SDS011;2964;42.144;24.730;2023-12-29T06:20:56;34.27;;;23.43;;
5876;SDS011;2964;42.144;24.730;2023-12-29T06:23:23;36.73;;;21.63;;
5876;SDS011;2964;42.144;24.730;2023-12-29T06:25:52;37.13;;;22.53;;
5876;SDS011;2964;42.144;24.730;2023-12-29T06:28:18;34.63;;;22.57;;
5876;SDS011;2964;42.144;24.730;2023-12-29T06:30:45;31.60;;;22.97;;
5876;SDS011;2964;42.144;24.730;2023-12-29T06:33:12;33.73;;;22.73;;
5876;SDS011;2964;42.144;24.730;2023-12-29T06:35:39;33.43;;;23.23;;
5876;SDS011;2964;42.144;24.730;2023-12-29T06:38:09;35.77;;;22.43;;
5876;SDS011;2964;42.144;24.730;2023-12-29T06:40:36;35.87;;;24.00;;
5876;SDS011;2964;42.144;24.730;2023-12-29T06:43:04;45.43;;;23.90;;
5876;SDS011;2964;42.144;24.730;2023-12-29T06:45:31;32.83;;;23.10;;
5876;SDS011;2964;42.144;24.730;2023-12-29T06:47:58;36.33;;;23.07;;
5876;SDS011;2964;42.144;24.730;2023-12-29T06:50:25;36.43;;;24.63;;
5876;SDS011;2964;42.144;24.730;2023-12-29T06:52:52;42.67;;;24.70;;
5876;SDS011;2964;42.144;24.730;2023-12-29T06:55:18;38.07;;;24.77;;
5876;SDS011;2964;42.144;24.730;2023-12-29T06:57:45;30.37;;;20.80;;
5876;SDS011;2964;42.144;24.730;2023-12-29T07:00:13;31.20;;;20.63;;
5876;SDS011;2964;42.144;24.730;2023-12-29T07:02:40;29.67;;;20.97;;
5876;SDS011;2964;42.144;24.730;2023-12-29T07:05:07;27.97;;;18.47;;
5876;SDS011;2964;42.144;24.730;2023-12-29T07:07:34;17.83;;;15.00;;
5876;SDS011;2964;42.144;24.730;2023-12-29T07:10:02;19.93;;;15.70;;
5876;SDS011;2964;42.144;24.730;2023-12-29T07:12:31;20.43;;;15.43;;
5876;SDS011;2964;42.144;24.730;2023-12-29T07:14:58;21.30;;;15.20;;
5876;SDS011;2964;42.144;24.730;2023-12-29T07:17:26;17.10;;;13.87;;
5876;SDS011;2964;42.144;24.730;2023-12-29T07:19:53;28.50;;;16.13;;
5876;SDS011;2964;42.144;24.730;2023-12-29T07:22:19;20.53;;;15.70;;
5876;SDS011;2964;42.144;24.730;2023-12-29T07:24:46;21.00;;;16.63;;
5876;SDS011;2964;42.144;24.730;2023-12-29T07:27:13;23.97;;;16.40;;
5876;SDS011;2964;42.144;24.730;2023-12-29T07:29:40;23.93;;;16.47;;
5876;SDS011;2964;42.144;24.730;2023-12-29T07:32:06;19.40;;;14.83;;
5876;SDS011;2964;42.144;24.730;2023-12-29T07:34:35;18.63;;;15.77;;
5876;SDS011;2964;42.144;24.730;2023-12-29T07:37:02;27.30;;;17.30;;
5876;SDS011;2964;42.144;24.730;2023-12-29T07:39:29;21.20;;;15.07;;
5876;SDS011;2964;42.144;24.730;2023-12-29T07:41:55;19.23;;;15.27;;
5876;SDS011;2964;42.144;24.730;2023-12-29T07:44:22;21.30;;;13.93;;
5876;SDS011;2964;42.144;24.730;2023-12-29T07:46:49;19.10;;;14.90;;
5876;SDS011;2964;42.144;24.730;2023-12-29T07:49:16;23.53;;;15.17;;
5876;SDS011;2964;42.144;24.730;2023-12-29T07:51:46;21.77;;;14.23;;
5876;SDS011;2964;42.144;24.730;2023-12-29T07:54:13;26.67;;;14.77;;
5876;SDS011;2964;42.144;24.730;2023-12-29T07:56:40;19.13;;;13.80;;
5876;SDS011;2964;42.144;24.730;2023-12-29T07:59:07;22.23;;;14.57;;
5876;SDS011;2964;42.144;24.730;2023-12-29T08:01:34;21.57;;;14.47;;
5876;SDS011;2964;42.144;24.730;2023-12-29T08:04:02;19.40;;;13.90;;
5876;SDS011;2964;42.144;24.730;2023-12-29T08:06:28;18.40;;;13.73;;
5876;SDS011;2964;42.144;24.730;2023-12-29T08:08:56;14.20;;;12.00;;
5876;SDS011;2964;42.144;24.730;2023-12-29T08:11:23;19.90;;;12.83;;
5876;SDS011;2964;42.144;24.730;2023-12-29T08:13:50;18.47;;;13.40;;
5876;SDS011;2964;42.144;24.730;2023-12-29T08:16:17;16.27;;;12.70;;
5876;SDS011;2964;42.144;24.730;2023-12-29T08:18:44;14.83;;;13.23;;
5876;SDS011;2964;42.144;24.730;2023-12-29T08:21:15;15.57;;;11.87;;
5876;SDS011;2964;42.144;24.730;2023-12-29T08:23:43;24.27;;;14.30;;
5876;SDS011;2964;42.144;24.730;2023-12-29T08:26:11;18.60;;;12.93;;
5876;SDS011;2964;42.144;24.730;2023-12-29T08:28:38;14.73;;;13.20;;
5876;SDS011;2964;42.144;24.730;2023-12-29T08:31:04;18.00;;;13.20;;
5876;SDS011;2964;42.144;24.730;2023-12-29T08:33:31;27.27;;;14.33;;
5876;SDS011;2964;42.144;24.730;2023-12-29T08:35:58;17.77;;;12.03;;
5876;SDS011;2964;42.144;24.730;2023-12-29T08:38:26;14.03;;;12.33;;
5876;SDS011;2964;42.144;24.730;2023-12-29T08:40:53;19.97;;;12.50;;
5876;SDS011;2964;42.144;24.730;2023-12-29T08:43:22;14.83;;;12.63;;
5876;SDS011;2964;42.144;24.730;2023-12-29T08:45:49;21.70;;;13.37;;
5876;SDS011;2964;42.144;24.730;2023-12-29T08:48:16;19.17;;;12.37;;
5876;SDS011;2964;42.144;24.730;2023-12-29T08:50:43;18.33;;;12.40;;
5876;SDS011;2964;42.144;24.730;2023-12-29T08:53:10;17.27;;;13.47;;
5876;SDS011;2964;42.144;24.730;2023-12-29T08:55:36;17.53;;;13.70;;
5876;SDS011;2964;42.144;24.730;2023-12-29T08:58:03;20.93;;;13.30;;
5876;SDS011;2964;42.144;24.730;2023-12-29T09:00:31;19.03;;;15.33;;
5876;SDS011;2964;42.144;24.730;2023-12-29T09:02:59;21.13;;;14.73;;
5876;SDS011;2964;42.144;24.730;2023-12-29T09:05:26;21.20;;;15.40;;
5876;SDS011;2964;42.144;24.730;2023-12-29T09:07:52;18.10;;;13.67;;
5876;SDS011;2964;42.144;24.730;2023-12-29T09:10:19;17.70;;;13.23;;
5876;SDS011;2964;42.144;24.730;2023-12-29T09:12:47;17.23;;;13.17;;
5876;SDS011;2964;42.144;24.730;2023-12-29T09:15:14;21.03;;;13.90;;
5876;SDS011;2964;42.144;24.730;2023-12-29T09:17:42;16.83;;;14.70;;
5876;SDS011;2964;42.144;24.730;2023-12-29T09:20:09;23.30;;;14.93;;
5876;SDS011;2964;42.144;24.730;2023-12-29T09:22:36;27.10;;;15.30;;
5876;SDS011;2964;42.144;24.730;2023-12-29T09:25:03;16.17;;;14.40;;
5876;SDS011;2964;42.144;24.730;2023-12-29T09:27:31;22.70;;;15.10;;
5876;SDS011;2964;42.144;24.730;2023-12-29T09:29:57;18.13;;;13.80;;
5876;SDS011;2964;42.144;24.730;2023-12-29T09:32:24;17.70;;;14.47;;
5876;SDS011;2964;42.144;24.730;2023-12-29T09:34:52;15.23;;;13.47;;
5876;SDS011;2964;42.144;24.730;2023-12-29T09:37:19;14.33;;;12.93;;
5876;SDS011;2964;42.144;24.730;2023-12-29T09:39:46;24.23;;;14.13;;
5876;SDS011;2964;42.144;24.730;2023-12-29T09:42:13;18.07;;;13.33;;
5876;SDS011;2964;42.144;24.730;2023-12-29T09:44:46;20.83;;;13.13;;
5876;SDS011;2964;42.144;24.730;2023-12-29T09:47:16;17.87;;;14.87;;
5876;SDS011;2964;42.144;24.730;2023-12-29T09:49:48;25.90;;;14.53;;
5876;SDS011;2964;42.144;24.730;2023-12-29T09:52:16;17.05;;;14.48;;
5876;SDS011;2964;42.144;24.730;2023-12-29T09:54:45;21.85;;;14.30;;
5876;SDS011;2964;42.144;24.730;2023-12-29T09:57:13;19.43;;;14.30;;
5876;SDS011;2964;42.144;24.730;2023-12-29T09:59:40;20.53;;;14.60;;
5876;SDS011;2964;42.144;24.730;2023-12-29T10:02:10;22.10;;;14.70;;
5876;SDS011;2964;42.144;24.730;2023-12-29T10:04:40;23.67;;;14.63;;
5876;SDS011;2964;42.144;24.730;2023-12-29T10:07:07;21.37;;;13.73;;
5876;SDS011;2964;42.144;24.730;2023-12-29T10:09:38;15.40;;;12.50;;
5876;SDS011;2964;42.144;24.730;2023-12-29T10:12:08;16.87;;;14.40;;
5876;SDS011;2964;42.144;24.730;2023-12-29T10:14:37;19.17;;;13.70;;
5876;SDS011;2964;42.144;24.730;2023-12-29T10:17:12;24.67;;;15.50;;
5876;SDS011;2964;42.144;24.730;2023-12-29T10:19:58;26.70;;;15.43;;
5876;SDS011;2964;42.144;24.730;2023-12-29T10:22:37;30.27;;;16.67;;
5876;SDS011;2964;42.144;24.730;2023-12-29T10:25:15;28.60;;;16.43;;
5876;SDS011;2964;42.144;24.730;2023-12-29T10:27:42;27.43;;;15.63;;
5876;SDS011;2964;42.144;24.730;2023-12-29T10:30:09;28.80;;;15.90;;
5876;SDS011;2964;42.144;24.730;2023-12-29T10:32:37;32.93;;;16.23;;
5876;SDS011;2964;42.144;24.730;2023-12-29T10:35:07;21.67;;;15.13;;
5876;SDS011;2964;42.144;24.730;2023-12-29T10:37:35;30.10;;;16.00;;
5876;SDS011;2964;42.144;24.730;2023-12-29T10:40:03;31.97;;;16.23;;
5876;SDS011;2964;42.144;24.730;2023-12-29T10:42:32;24.03;;;15.17;;
5876;SDS011;2964;42.144;24.730;2023-12-29T10:45:06;31.80;;;16.00;;
5876;SDS011;2964;42.144;24.730;2023-12-29T10:47:34;24.07;;;14.83;;
5876;SDS011;2964;42.144;24.730;2023-12-29T10:50:01;20.87;;;15.87;;
5876;SDS011;2964;42.144;24.730;2023-12-29T10:52:32;28.40;;;16.43;;
5876;SDS011;2964;42.144;24.730;2023-12-29T10:55:09;22.87;;;15.17;;
5876;SDS011;2964;42.144;24.730;2023-12-29T10:57:38;22.80;;;15.47;;
5876;SDS011;2964;42.144;24.730;2023-12-29T11:00:07;27.17;;;15.20;;
5876;SDS011;2964;42.144;24.730;2023-12-29T11:02:37;24.10;;;16.37;;
5876;SDS011;2964;42.144;24.730;2023-12-29T11:19:17;24.70;;;17.00;;
5876;SDS011;2964;42.144;24.730;2023-12-29T11:21:44;29.87;;;15.87;;
5876;SDS011;2964;42.144;24.730;2023-12-29T11:24:12;22.77;;;15.93;;
5876;SDS011;2964;42.144;24.730;2023-12-29T11:26:38;23.37;;;15.00;;
5876;SDS011;2964;42.144;24.730;2023-12-29T11:29:07;22.60;;;15.27;;
5876;SDS011;2964;42.144;24.730;2023-12-29T11:31:34;21.63;;;14.77;;
5876;SDS011;2964;42.144;24.730;2023-12-29T11:34:03;20.30;;;14.30;;
5876;SDS011;2964;42.144;24.730;2023-12-29T11:36:38;23.63;;;14.10;;
5876;SDS011;2964;42.144;24.730;2023-12-29T11:39:12;37.33;;;15.00;;
5876;SDS011;2964;42.144;24.730;2023-12-29T11:41:47;19.17;;;13.13;;
5876;SDS011;2964;42.144;24.730;2023-12-29T11:44:26;18.23;;;13.77;;
5876;SDS011;2964;42.144;24.730;2023-12-29T11:46:53;23.37;;;14.20;;
5876;SDS011;2964;42.144;24.730;2023-12-29T11:49:20;22.47;;;14.83;;
5876;SDS011;2964;42.144;24.730;2023-12-29T11:51:49;22.13;;;14.83;;
5876;SDS011;2964;42.144;24.730;2023-12-29T11:54:21;27.03;;;14.50;;
5876;SDS011;2964;42.144;24.730;2023-12-29T11:56:48;23.90;;;15.20;;
5876;SDS011;2964;42.144;24.730;2023-12-29T11:59:16;23.27;;;14.87;;
5876;SDS011;2964;42.144;24.730;2023-12-29T12:01:43;33.30;;;15.00;;
5876;SDS011;2964;42.144;24.730;2023-12-29T12:07:07;22.13;;;12.57;;
5876;SDS011;2964;42.144;24.730;2023-12-29T12:09:35;18.47;;;13.27;;
5876;SDS011;2964;42.144;24.730;2023-12-29T12:12:02;19.60;;;13.63;;
5876;SDS011;2964;42.144;24.730;2023-12-29T12:14:48;20.43;;;12.83;;
5876;SDS011;2964;42.144;24.730;2023-12-29T12:17:31;19.30;;;13.80;;
5876;SDS011;2964;42.144;24.730;2023-12-29T12:20:00;16.13;;;12.13;;
5876;SDS011;2964;42.144;24.730;2023-12-29T12:22:30;12.87;;;11.33;;
5876;SDS011;2964;42.144;24.730;2023-12-29T12:24:58;32.40;;;13.40;;
5876;SDS011;2964;42.144;24.730;2023-12-29T12:27:25;18.87;;;12.77;;
5876;SDS011;2964;42.144;24.730;2023-12-29T12:29:53;20.70;;;12.27;;
5876;SDS011;2964;42.144;24.730;2023-12-29T12:32:25;15.50;;;11.70;;
5876;SDS011;2964;42.144;24.730;2023-12-29T12:34:52;23.27;;;11.80;;
5876;SDS011;2964;42.144;24.730;2023-12-29T12:37:20;18.77;;;12.40;;
5876;SDS011;2964;42.144;24.730;2023-12-29T12:39:49;20.07;;;11.83;;
5876;SDS011;2964;42.144;24.730;2023-12-29T12:42:17;13.30;;;11.93;;
5876;SDS011;2964;42.144;24.730;2023-12-29T12:44:47;14.20;;;11.67;;
5876;SDS011;2964;42.144;24.730;2023-12-29T12:47:23;14.13;;;10.30;;
5876;SDS011;2964;42.144;24.730;2023-12-29T12:49:53;11.80;;;9.67;;
5876;SDS011;2964;42.144;24.730;2023-12-29T12:52:20;17.50;;;9.70;;
5876;SDS011;2964;42.144;24.730;2023-12-29T12:54:47;17.30;;;10.70;;
5876;SDS011;2964;42.144;24.730;2023-12-29T12:57:18;14.33;;;10.43;;
5876;SDS011;2964;42.144;24.730;2023-12-29T12:59:46;15.43;;;10.40;;
5876;SDS011;2964;42.144;24.730;2023-12-29T13:02:15;15.57;;;9.80;;
5876;SDS011;2964;42.144;24.730;2023-12-29T13:04:42;12.30;;;10.67;;
5876;SDS011;2964;42.144;24.730;2023-12-29T13:07:09;18.47;;;11.37;;
5876;SDS011;2964;42.144;24.730;2023-12-29T13:09:36;20.83;;;12.40;;
5876;SDS011;2964;42.144;24.730;2023-12-29T13:12:11;14.73;;;12.13;;
5876;SDS011;2964;42.144;24.730;2023-12-29T13:14:40;17.83;;;12.70;;
5876;SDS011;2964;42.144;24.730;2023-12-29T13:17:08;15.90;;;11.77;;
5876;SDS011;2964;42.144;24.730;2023-12-29T13:19:36;22.50;;;11.40;;
5876;SDS011;2964;42.144;24.730;2023-12-29T13:22:05;15.80;;;11.67;;
5876;SDS011;2964;42.144;24.730;2023-12-29T13:24:33;15.33;;;11.33;;
5876;SDS011;2964;42.144;24.730;2023-12-29T13:27:02;13.70;;;11.80;;
5876;SDS011;2964;42.144;24.730;2023-12-29T13:29:32;15.13;;;11.93;;
5876;SDS011;2964;42.144;24.730;2023-12-29T13:32:03;13.87;;;10.93;;
5876;SDS011;2964;42.144;24.730;2023-12-29T13:34:35;11.70;;;10.60;;
5876;SDS011;2964;42.144;24.730;2023-12-29T13:37:09;11.37;;;10.30;;
5876;SDS011;2964;42.144;24.730;2023-12-29T13:39:45;15.67;;;10.33;;
5876;SDS011;2964;42.144;24.730;2023-12-29T13:42:19;10.77;;;9.67;;
5876;SDS011;2964;42.144;24.730;2023-12-29T13:44:50;14.30;;;10.07;;
5876;SDS011;2964;42.144;24.730;2023-12-29T13:47:18;11.30;;;10.17;;
5876;SDS011;2964;42.144;24.730;2023-12-29T13:49:46;9.63;;;8.63;;
5876;SDS011;2964;42.144;24.730;2023-12-29T13:52:13;12.13;;;9.23;;
5876;SDS011;2964;42.144;24.730;2023-12-29T13:54:43;10.47;;;9.07;;
5876;SDS011;2964;42.144;24.730;2023-12-29T13:57:09;11.03;;;9.83;;
5876;SDS011;2964;42.144;24.730;2023-12-29T13:59:36;10.37;;;9.37;;
5876;SDS011;2964;42.144;24.730;2023-12-29T14:02:18;14.37;;;10.47;;
5876;SDS011;2964;42.144;24.730;2023-12-29T14:04:47;20.50;;;15.77;;
5876;SDS011;2964;42.144;24.730;2023-12-29T14:07:13;21.80;;;16.33;;
5876;SDS011;2964;42.144;24.730;2023-12-29T14:09:41;24.57;;;15.37;;
5876;SDS011;2964;42.144;24.730;2023-12-29T14:12:07;21.93;;;17.13;;
5876;SDS011;2964;42.144;24.730;2023-12-29T14:14:34;24.13;;;17.53;;
5876;SDS011;2964;42.144;24.730;2023-12-29T14:17:01;23.90;;;17.30;;
5876;SDS011;2964;42.144;24.730;2023-12-29T14:19:35;30.00;;;18.53;;
5876;SDS011;2964;42.144;24.730;2023-12-29T14:22:02;24.67;;;17.37;;
5876;SDS011;2964;42.144;24.730;2023-12-29T14:24:29;27.17;;;16.37;;
5876;SDS011;2964;42.144;24.730;2023-12-29T14:26:55;28.60;;;17.30;;
5876;SDS011;2964;42.144;24.730;2023-12-29T14:29:23;21.53;;;17.17;;
5876;SDS011;2964;42.144;24.730;2023-12-29T14:31:51;19.63;;;16.03;;
5876;SDS011;2964;42.144;24.730;2023-12-29T14:34:18;19.00;;;16.00;;
5876;SDS011;2964;42.144;24.730;2023-12-29T14:36:46;20.10;;;16.47;;
5876;SDS011;2964;42.144;24.730;2023-12-29T14:39:13;29.07;;;17.17;;
5876;SDS011;2964;42.144;24.730;2023-12-29T14:41:40;24.10;;;17.50;;
5876;SDS011;2964;42.144;24.730;2023-12-29T14:44:08;23.77;;;16.77;;
5876;SDS011;2964;42.144;24.730;2023-12-29T14:46:35;25.10;;;16.37;;
5876;SDS011;2964;42.144;24.730;2023-12-29T14:49:03;23.97;;;16.07;;
5876;SDS011;2964;42.144;24.730;2023-12-29T14:51:29;25.27;;;17.87;;
5876;SDS011;2964;42.144;24.730;2023-12-29T14:53:58;28.40;;;19.50;;
5876;SDS011;2964;42.144;24.730;2023-12-29T14:56:24;32.03;;;20.83;;
5876;SDS011;2964;42.144;24.730;2023-12-29T14:58:51;31.33;;;19.90;;